createdAt,value
2023-05-21T00:00:55.135Z,90.68
2023-05-21T00:01:55.137Z,90.23
2023-05-21T00:02:55.179Z,90.99
2023-05-21T00:03:55.266Z,90.48
2023-05-21T00:04:55.083Z,91.14
2023-05-21T00:05:55.080Z,91.09
2023-05-21T00:06:55.062Z,91.19
2023-05-21T00:07:55.146Z,90.88
2023-05-21T00:08:55.072Z,90.88
2023-05-21T00:09:55.020Z,90.94
2023-05-21T00:10:55.009Z,91.19
2023-05-21T00:11:55.023Z,91.09
2023-05-21T00:12:54.975Z,91.14
2023-05-21T00:13:55.005Z,90.88
2023-05-21T00:14:54.973Z,90.84
2023-05-21T00:15:55.030Z,91.14
2023-05-21T00:16:54.931Z,90.94
2023-05-21T00:17:54.972Z,91.96
2023-05-21T00:18:54.929Z,91.14
2023-05-21T00:19:54.920Z,91.14
2023-05-21T00:20:54.889Z,91.14
2023-05-21T00:21:54.913Z,91.14
2023-05-21T00:22:54.915Z,90.94
2023-05-21T00:23:54.877Z,91.25
2023-05-21T00:24:54.844Z,90.94
2023-05-21T00:25:54.878Z,90.94
2023-05-21T00:26:54.825Z,91.09
2023-05-21T00:27:55.882Z,91.19
2023-05-21T00:28:54.794Z,90.94
2023-05-21T00:29:54.809Z,91.39
2023-05-21T00:30:54.776Z,91.39
2023-05-21T00:31:54.885Z,91.39
2023-05-21T00:32:54.797Z,90.99
2023-05-21T00:33:54.766Z,91.19
2023-05-21T00:34:54.726Z,91.90
2023-05-21T00:35:54.740Z,91.69
2023-05-21T00:36:54.713Z,91.69
2023-05-21T00:37:54.699Z,91.60
2023-05-21T00:38:54.697Z,91.60
2023-05-21T00:39:56.329Z,91.90
2023-05-21T00:40:54.676Z,91.69
2023-05-21T00:41:54.650Z,91.69
2023-05-21T00:42:54.653Z,91.64
2023-05-21T00:43:54.641Z,92.10
2023-05-21T00:44:54.660Z,91.80
2023-05-21T00:45:54.720Z,92.00
2023-05-21T00:46:54.621Z,92.14
2023-05-21T00:47:54.623Z,92.04
2023-05-21T00:48:54.565Z,91.74
2023-05-21T00:49:54.570Z,92.21
2023-05-21T00:50:54.545Z,92.25
2023-05-21T00:51:54.572Z,91.64
2023-05-21T00:52:55.563Z,91.60
2023-05-21T00:53:54.522Z,91.60
2023-05-21T00:54:54.523Z,92.14
2023-05-21T00:55:54.506Z,91.94
2023-05-21T00:56:54.498Z,92.25
2023-05-21T00:57:54.469Z,92.14
2023-05-21T00:58:54.456Z,91.64
2023-05-21T00:59:54.456Z,91.78
2023-05-21T01:00:54.463Z,91.48
2023-05-21T01:01:54.462Z,91.88
2023-05-21T01:02:54.492Z,91.68
2023-05-21T01:03:54.435Z,91.48
2023-05-21T01:04:54.388Z,91.42
2023-05-21T01:05:54.378Z,91.93
2023-05-21T01:06:54.382Z,91.62
2023-05-21T01:07:54.366Z,92.03
2023-05-21T01:08:54.353Z,91.77
2023-05-21T01:09:54.338Z,92.79
2023-05-21T01:10:54.358Z,92.68
2023-05-21T01:11:54.313Z,92.79
2023-05-21T01:12:54.290Z,92.89
2023-05-21T01:13:54.300Z,92.48
2023-05-21T01:14:54.274Z,92.72
2023-05-21T01:15:54.299Z,93.13
2023-05-21T01:16:54.266Z,93.03
2023-05-21T01:17:54.264Z,93.13
2023-05-21T01:18:54.319Z,93.44
2023-05-21T01:19:54.261Z,93.64
2023-05-21T01:20:54.199Z,93.74
2023-05-21T01:21:54.202Z,93.95
2023-05-21T01:22:54.198Z,93.74
2023-05-21T01:23:54.212Z,93.64
2023-05-21T01:24:54.156Z,93.85
2023-05-21T01:25:54.175Z,93.33
2023-05-21T01:26:54.178Z,93.24
2023-05-21T01:27:54.125Z,93.44
2023-05-21T01:28:54.111Z,93.38
2023-05-21T01:29:54.123Z,93.99
2023-05-21T01:30:54.093Z,93.18
2023-05-21T01:31:54.101Z,93.89
2023-05-21T01:32:54.214Z,93.89
2023-05-21T01:33:54.092Z,93.89
2023-05-21T01:34:54.042Z,93.89
2023-05-21T01:35:54.037Z,94.09
2023-05-21T01:36:54.044Z,93.99
2023-05-21T01:37:54.018Z,94.20
2023-05-21T01:38:53.991Z,93.89
2023-05-21T01:39:53.989Z,94.14
2023-05-21T01:40:54.000Z,93.89
2023-05-21T01:41:53.966Z,94.14
2023-05-21T01:42:53.976Z,94.04
2023-05-21T01:43:53.975Z,93.63
2023-05-21T01:44:53.946Z,93.32
2023-05-21T01:45:53.965Z,93.93
2023-05-21T01:46:53.924Z,94.14
2023-05-21T01:47:53.950Z,94.24
2023-05-21T01:48:53.916Z,94.24
2023-05-21T01:49:53.886Z,93.98
2023-05-21T01:50:53.858Z,94.45
2023-05-21T01:51:53.868Z,94.08
2023-05-21T01:52:53.868Z,94.29
2023-05-21T01:53:53.831Z,95.31
2023-05-21T01:54:53.813Z,95.41
2023-05-21T01:55:53.839Z,95.36
2023-05-21T01:56:53.793Z,95.47
2023-05-21T01:57:53.800Z,95.47
2023-05-21T01:58:53.804Z,95.36
2023-05-21T01:59:53.769Z,95.36
2023-05-21T02:00:53.767Z,95.87
2023-05-21T02:01:53.802Z,96.28
2023-05-21T02:02:53.788Z,96.44
2023-05-21T02:03:53.868Z,97.00
2023-05-21T02:04:53.698Z,96.69
2023-05-21T02:05:53.713Z,96.95
2023-05-21T02:06:53.674Z,96.84
2023-05-21T02:07:53.687Z,96.84
2023-05-21T02:08:55.558Z,97.00
2023-05-21T02:09:53.650Z,96.80
2023-05-21T02:10:53.653Z,96.91
2023-05-21T02:11:53.650Z,96.84
2023-05-21T02:12:53.638Z,97.00
2023-05-21T02:13:53.612Z,96.60
2023-05-21T02:14:53.604Z,95.89
2023-05-21T02:15:53.615Z,96.35
2023-05-21T02:16:53.573Z,95.78
2023-05-21T02:17:53.603Z,96.50
2023-05-21T02:18:53.861Z,96.09
2023-05-21T02:19:53.544Z,95.89
2023-05-21T02:20:53.537Z,96.09
2023-05-21T02:21:53.541Z,96.23
2023-05-21T02:22:53.496Z,96.60
2023-05-21T02:23:53.489Z,96.70
2023-05-21T02:24:53.472Z,96.03
2023-05-21T02:25:53.477Z,95.98
2023-05-21T02:26:53.469Z,95.78
2023-05-21T02:27:53.580Z,95.52
2023-05-21T02:28:53.428Z,96.14
2023-05-21T02:29:53.425Z,96.14
2023-05-21T02:30:53.504Z,96.80
2023-05-21T02:31:53.434Z,96.91
2023-05-21T02:32:53.509Z,96.50
2023-05-21T02:33:53.415Z,96.60
2023-05-21T02:34:53.377Z,95.89
2023-05-21T02:35:53.358Z,96.44
2023-05-21T02:36:53.353Z,95.89
2023-05-21T02:37:53.337Z,96.66
2023-05-21T02:38:53.315Z,96.96
2023-05-21T02:39:53.324Z,96.81
2023-05-21T02:40:53.424Z,96.10
2023-05-21T02:41:53.275Z,95.29
2023-05-21T02:42:53.304Z,95.34
2023-05-21T02:43:53.266Z,94.93
2023-05-21T02:44:53.252Z,95.54
2023-05-21T02:45:53.260Z,94.73
2023-05-21T02:46:53.241Z,94.73
2023-05-21T02:47:53.255Z,94.84
2023-05-21T02:48:53.226Z,94.84
2023-05-21T02:49:53.218Z,94.12
2023-05-21T02:50:53.175Z,94.23
2023-05-21T02:51:53.159Z,94.12
2023-05-21T02:52:53.177Z,94.02
2023-05-21T02:53:53.135Z,94.32
2023-05-21T02:54:53.151Z,94.28
2023-05-21T02:55:53.120Z,93.87
2023-05-21T02:56:53.115Z,94.08
2023-05-21T02:57:53.090Z,94.04
2023-05-21T02:58:53.137Z,93.63
2023-05-21T02:59:53.096Z,93.22
2023-05-21T03:00:53.100Z,93.68
2023-05-21T03:01:53.085Z,93.38
2023-05-21T03:02:53.151Z,92.77
2023-05-21T03:03:53.028Z,92.57
2023-05-21T03:04:53.041Z,92.67
2023-05-21T03:05:53.021Z,92.87
2023-05-21T03:06:52.990Z,92.97
2023-05-21T03:07:52.984Z,92.22
2023-05-21T03:08:52.967Z,91.77
2023-05-21T03:09:52.950Z,91.47
2023-05-21T03:10:52.964Z,91.36
2023-05-21T03:11:52.944Z,91.06
2023-05-21T03:12:52.923Z,91.16
2023-05-21T03:13:52.913Z,90.41
2023-05-21T03:14:52.895Z,90.25
2023-05-21T03:15:52.914Z,91.06
2023-05-21T03:16:52.927Z,91.06
2023-05-21T03:17:52.905Z,91.06
2023-05-21T03:18:52.947Z,90.96
2023-05-21T03:19:52.846Z,90.86
2023-05-21T03:20:52.836Z,91.06
2023-05-21T03:21:52.836Z,90.86
2023-05-21T03:22:52.831Z,90.66
2023-05-21T03:23:52.794Z,90.55
2023-05-21T03:24:52.791Z,90.35
2023-05-21T03:25:52.801Z,91.06
2023-05-21T03:26:52.770Z,91.06
2023-05-21T03:27:52.755Z,91.06
2023-05-21T03:28:52.748Z,90.25
2023-05-21T03:29:52.729Z,90.96
2023-05-21T03:30:52.752Z,90.96
2023-05-21T03:31:52.809Z,91.06
2023-05-21T03:32:52.829Z,91.06
2023-05-21T03:33:52.691Z,90.86
2023-05-21T03:34:52.716Z,90.86
2023-05-21T03:35:52.658Z,90.86
2023-05-21T03:36:52.675Z,90.75
2023-05-21T03:37:52.693Z,90.51
2023-05-21T03:38:52.642Z,90.00
2023-05-21T03:39:52.648Z,89.80
2023-05-21T03:40:52.609Z,89.80
2023-05-21T03:41:52.639Z,89.80
2023-05-21T03:42:52.593Z,89.59
2023-05-21T03:43:52.601Z,90.06
2023-05-21T03:44:52.574Z,89.55
2023-05-21T03:45:52.770Z,89.65
2023-05-21T03:46:52.562Z,89.76
2023-05-21T03:47:52.643Z,89.76
2023-05-21T03:48:52.525Z,89.76
2023-05-21T03:49:55.378Z,89.96
2023-05-21T03:50:52.503Z,89.55
2023-05-21T03:51:52.490Z,89.31
2023-05-21T03:52:52.504Z,89.31
2023-05-21T03:53:52.475Z,89.11
2023-05-21T03:54:52.466Z,89.21
2023-05-21T03:55:52.449Z,89.81
2023-05-21T03:56:52.436Z,89.61
2023-05-21T03:57:52.447Z,89.41
2023-05-21T03:58:52.422Z,89.41
2023-05-21T03:59:52.414Z,89.41
2023-05-21T04:00:52.403Z,89.41
2023-05-21T04:01:52.380Z,89.81
2023-05-21T04:02:52.447Z,89.31
2023-05-21T04:03:52.779Z,88.86
2023-05-21T04:04:52.378Z,88.76
2023-05-21T04:05:52.347Z,88.66
2023-05-21T04:06:52.319Z,88.66
2023-05-21T04:07:52.315Z,89.06
2023-05-21T04:08:52.364Z,88.76
2023-05-21T04:09:52.279Z,88.25
2023-05-21T04:10:52.276Z,88.05
2023-05-21T04:11:52.258Z,88.31
2023-05-21T04:12:52.284Z,88.11
2023-05-21T04:13:52.267Z,88.21
2023-05-21T04:14:52.245Z,88.42
2023-05-21T04:15:52.272Z,88.21
2023-05-21T04:16:52.228Z,88.01
2023-05-21T04:17:52.288Z,88.21
2023-05-21T04:18:52.230Z,88.31
2023-05-21T04:19:52.172Z,88.27
2023-05-21T04:20:52.159Z,87.97
2023-05-21T04:21:52.162Z,88.07
2023-05-21T04:22:52.139Z,88.11
2023-05-21T04:23:52.124Z,87.91
2023-05-21T04:24:52.133Z,87.77
2023-05-21T04:25:52.113Z,87.77
2023-05-21T04:26:52.125Z,88.07
2023-05-21T04:27:52.099Z,87.87
2023-05-21T04:28:52.075Z,87.91
2023-05-21T04:29:52.072Z,88.27
2023-05-21T04:30:52.074Z,88.27
2023-05-21T04:31:52.082Z,88.27
2023-05-21T04:32:52.106Z,87.87
2023-05-21T04:33:52.007Z,87.87
2023-05-21T04:34:52.002Z,87.97
2023-05-21T04:35:52.000Z,87.56
2023-05-21T04:36:51.983Z,88.07
2023-05-21T04:37:51.980Z,87.77
2023-05-21T04:38:51.979Z,87.66
2023-05-21T04:39:51.938Z,87.87
2023-05-21T04:40:52.056Z,87.56
2023-05-21T04:41:51.929Z,87.87
2023-05-21T04:42:51.919Z,87.42
2023-05-21T04:43:51.909Z,87.77
2023-05-21T04:44:51.900Z,88.27
2023-05-21T04:45:51.859Z,87.82
2023-05-21T04:46:51.943Z,87.66
2023-05-21T04:47:51.878Z,87.97
2023-05-21T04:48:51.832Z,88.27
2023-05-21T04:49:51.854Z,88.02
2023-05-21T04:50:51.814Z,87.42
2023-05-21T04:51:51.810Z,88.13
2023-05-21T04:52:51.784Z,87.93
2023-05-21T04:53:51.795Z,87.22
2023-05-21T04:54:51.780Z,88.02
2023-05-21T04:55:51.750Z,87.32
2023-05-21T04:56:51.735Z,88.02
2023-05-21T04:57:51.719Z,87.52
2023-05-21T04:58:51.711Z,88.13
2023-05-21T04:59:51.716Z,87.73
2023-05-21T05:00:51.792Z,88.23
2023-05-21T05:01:51.703Z,87.93
2023-05-21T05:02:51.772Z,87.68
2023-05-21T05:03:51.709Z,87.52
2023-05-21T05:04:51.642Z,87.93
2023-05-21T05:05:51.626Z,87.22
2023-05-21T05:06:51.640Z,87.32
2023-05-21T05:07:51.609Z,88.02
2023-05-21T05:08:51.594Z,88.23
2023-05-21T05:09:51.594Z,88.23
2023-05-21T05:10:51.572Z,88.23
2023-05-21T05:11:51.554Z,88.13
2023-05-21T05:12:51.565Z,87.79
2023-05-21T05:13:51.534Z,87.68
2023-05-21T05:14:51.543Z,88.09
2023-05-21T05:15:53.287Z,88.09
2023-05-21T05:16:51.631Z,88.19
2023-05-21T05:17:51.538Z,88.19
2023-05-21T05:18:51.530Z,88.70
2023-05-21T05:19:51.467Z,89.04
2023-05-21T05:20:51.477Z,88.53
2023-05-21T05:21:51.456Z,89.00
2023-05-21T05:22:51.435Z,88.64
2023-05-21T05:23:51.410Z,88.49
2023-05-21T05:24:51.416Z,88.84
2023-05-21T05:25:51.426Z,88.74
2023-05-21T05:26:52.066Z,88.70
2023-05-21T05:27:51.365Z,88.64
2023-05-21T05:28:51.366Z,88.64
2023-05-21T05:29:51.342Z,88.74
2023-05-21T05:30:51.444Z,88.53
2023-05-21T05:31:51.342Z,88.74
2023-05-21T05:32:51.406Z,88.59
2023-05-21T05:33:51.298Z,89.14
2023-05-21T05:34:51.319Z,88.90
2023-05-21T05:35:51.286Z,88.74
2023-05-21T05:36:51.298Z,88.94
2023-05-21T05:37:51.252Z,89.00
2023-05-21T05:38:51.267Z,88.74
2023-05-21T05:39:51.230Z,88.59
2023-05-21T05:40:51.244Z,88.79
2023-05-21T05:41:51.246Z,88.59
2023-05-21T05:42:51.224Z,88.49
2023-05-21T05:43:51.186Z,88.59
2023-05-21T05:44:51.196Z,88.39
2023-05-21T05:45:51.207Z,88.70
2023-05-21T05:46:51.206Z,88.70
2023-05-21T05:47:51.174Z,88.70
2023-05-21T05:48:51.167Z,88.79
2023-05-21T05:49:51.114Z,88.59
2023-05-21T05:50:51.133Z,89.00
2023-05-21T05:51:51.109Z,87.88
2023-05-21T05:52:51.093Z,88.45
2023-05-21T05:53:51.077Z,88.55
2023-05-21T05:54:51.071Z,88.55
2023-05-21T05:55:51.066Z,88.55
2023-05-21T05:56:51.042Z,88.85
2023-05-21T05:57:51.045Z,88.55
2023-05-21T05:58:51.026Z,88.35
2023-05-21T05:59:51.002Z,88.35
2023-05-21T06:00:51.027Z,88.55
2023-05-21T06:01:50.995Z,87.54
2023-05-21T06:02:51.054Z,88.01
2023-05-21T06:03:51.073Z,87.84
2023-05-21T06:04:50.955Z,88.31
2023-05-21T06:05:50.982Z,87.60
2023-05-21T06:06:50.939Z,87.90
2023-05-21T06:07:50.912Z,87.60
2023-05-21T06:08:50.906Z,86.59
2023-05-21T06:09:50.899Z,87.40
2023-05-21T06:10:50.901Z,87.60
2023-05-21T06:11:50.891Z,87.86
2023-05-21T06:12:50.925Z,87.36
2023-05-21T06:13:50.931Z,87.76
2023-05-21T06:14:50.843Z,86.75
2023-05-21T06:15:50.862Z,86.55
2023-05-21T06:16:50.816Z,87.15
2023-05-21T06:17:50.876Z,86.61
2023-05-21T06:18:50.815Z,86.91
2023-05-21T06:19:50.791Z,87.21
2023-05-21T06:20:50.819Z,85.90
2023-05-21T06:21:50.748Z,85.80
2023-05-21T06:22:50.746Z,85.90
2023-05-21T06:23:50.728Z,85.90
2023-05-21T06:24:50.736Z,85.40
2023-05-21T06:25:50.716Z,85.96
2023-05-21T06:26:50.731Z,86.47
2023-05-21T06:27:50.681Z,86.16
2023-05-21T06:28:50.701Z,85.66
2023-05-21T06:29:50.684Z,85.82
2023-05-21T06:30:50.696Z,85.62
2023-05-21T06:31:50.647Z,85.92
2023-05-21T06:32:50.722Z,84.61
2023-05-21T06:33:50.846Z,85.92
2023-05-21T06:34:50.618Z,85.82
2023-05-21T06:35:50.612Z,85.98
2023-05-21T06:36:50.596Z,85.88
2023-05-21T06:37:50.582Z,85.48
2023-05-21T06:38:50.582Z,85.54
2023-05-21T06:39:50.545Z,83.66
2023-05-21T06:40:50.562Z,83.72
2023-05-21T06:41:50.524Z,83.39
2023-05-21T06:42:50.537Z,82.44
2023-05-21T06:43:50.508Z,82.66
2023-05-21T06:44:50.521Z,79.94
2023-05-21T06:45:50.535Z,79.71
2023-05-21T06:46:50.492Z,79.97
2023-05-21T06:47:50.535Z,78.73
2023-05-21T06:48:50.456Z,79.69
2023-05-21T06:49:50.450Z,78.39
2023-05-21T06:50:50.501Z,74.74
2023-05-21T06:51:50.430Z,77.15
2023-05-21T06:52:50.552Z,78.02
2023-05-21T06:53:50.431Z,78.68
2023-05-21T06:54:50.381Z,75.87
2023-05-21T06:55:50.365Z,73.93
2023-05-21T06:56:50.352Z,74.57
2023-05-21T06:57:50.394Z,75.71
2023-05-21T06:58:50.347Z,75.97
2023-05-21T06:59:50.329Z,74.23
2023-05-21T07:00:50.370Z,74.63
2023-05-21T07:01:50.317Z,73.23
2023-05-21T07:02:50.430Z,72.97
2023-05-21T07:03:51.494Z,74.77
2023-05-21T07:04:50.276Z,74.13
2023-05-21T07:05:50.275Z,75.63
2023-05-21T07:06:50.246Z,75.80
2023-05-21T07:07:50.239Z,72.69
2023-05-21T07:08:50.270Z,74.80
2023-05-21T07:09:50.218Z,72.76
2023-05-21T07:10:50.216Z,71.19
2023-05-21T07:11:50.187Z,72.60
2023-05-21T07:12:50.222Z,74.90
2023-05-21T07:13:50.193Z,73.50
2023-05-21T07:14:50.183Z,72.00
2023-05-21T07:15:50.144Z,73.19
2023-05-21T07:16:50.139Z,72.00
2023-05-21T07:17:50.211Z,73.33
2023-05-21T07:18:50.121Z,74.40
2023-05-21T07:19:50.093Z,72.89
2023-05-21T07:20:50.105Z,71.80
2023-05-21T07:21:50.095Z,71.73
2023-05-21T07:22:50.080Z,73.57
2023-05-21T07:23:50.070Z,74.57
2023-05-21T07:24:50.070Z,74.13
2023-05-21T07:25:50.037Z,73.93
2023-05-21T07:26:50.018Z,74.60
2023-05-21T07:27:50.013Z,72.39
2023-05-21T07:28:50.013Z,72.96
2023-05-21T07:29:49.986Z,71.83
2023-05-21T07:30:50.000Z,72.26
2023-05-21T07:31:49.974Z,72.83
2023-05-21T07:32:49.980Z,72.49
2023-05-21T07:33:50.052Z,71.09
2023-05-21T07:34:51.162Z,70.89
2023-05-21T07:35:49.919Z,73.39
2023-05-21T07:36:49.904Z,71.06
2023-05-21T07:37:49.947Z,71.06
2023-05-21T07:38:49.903Z,69.32
2023-05-21T07:39:49.919Z,69.76
2023-05-21T07:40:49.901Z,70.16
2023-05-21T07:41:49.854Z,70.56
2023-05-21T07:42:49.830Z,69.53
2023-05-21T07:43:49.827Z,70.32
2023-05-21T07:44:49.816Z,71.69
2023-05-21T07:45:49.842Z,67.30
2023-05-21T07:46:49.846Z,68.03
2023-05-21T07:47:49.834Z,70.19
2023-05-21T07:48:49.771Z,68.40
2023-05-21T07:49:49.801Z,67.33
2023-05-21T07:50:49.789Z,70.03
2023-05-21T07:51:49.736Z,69.59
2023-05-21T07:52:49.765Z,70.89
2023-05-21T07:53:49.734Z,68.26
2023-05-21T07:54:49.697Z,68.29
2023-05-21T07:55:49.708Z,67.86
2023-05-21T07:56:49.676Z,68.36
2023-05-21T07:57:49.666Z,69.92
2023-05-21T07:58:49.675Z,68.96
2023-05-21T07:59:49.650Z,69.23
2023-05-21T08:00:49.634Z,66.03
2023-05-21T08:01:49.662Z,69.53
2023-05-21T08:02:49.688Z,69.39
2023-05-21T08:03:49.839Z,67.70
2023-05-21T08:04:49.632Z,68.96
2023-05-21T08:05:49.721Z,69.73
2023-05-21T08:06:49.582Z,68.23
2023-05-21T08:07:49.567Z,67.54
2023-05-21T08:08:49.572Z,65.01
2023-05-21T08:09:49.549Z,67.00
2023-05-21T08:10:49.521Z,67.07
2023-05-21T08:11:49.521Z,65.88
2023-05-21T08:12:49.499Z,65.94
2023-05-21T08:13:49.517Z,63.36
2023-05-21T08:14:49.474Z,65.64
2023-05-21T08:15:52.013Z,65.55
2023-05-21T08:16:49.537Z,65.15
2023-05-21T08:17:49.483Z,63.36
2023-05-21T08:18:49.474Z,65.64
2023-05-21T08:19:49.423Z,66.01
2023-05-21T08:20:49.431Z,62.37
2023-05-21T08:21:51.382Z,67.04
2023-05-21T08:22:49.389Z,63.46
2023-05-21T08:23:49.378Z,63.26
2023-05-21T08:24:49.364Z,63.36
2023-05-21T08:25:49.389Z,64.06
2023-05-21T08:26:49.341Z,63.06
2023-05-21T08:27:51.682Z,64.95
2023-05-21T08:28:49.328Z,63.95
2023-05-21T08:29:49.350Z,61.63
2023-05-21T08:30:49.321Z,65.41
2023-05-21T08:31:49.386Z,63.15
2023-05-21T08:32:49.306Z,66.44
2023-05-21T08:33:49.263Z,63.42
2023-05-21T08:34:49.284Z,63.14
2023-05-21T08:35:49.289Z,64.63
2023-05-21T08:36:49.284Z,66.50
2023-05-21T08:37:49.243Z,65.10
2023-05-21T08:38:49.237Z,66.30
2023-05-21T08:39:49.231Z,67.83
2023-05-21T08:40:51.219Z,63.94
2023-05-21T08:41:49.181Z,62.91
2023-05-21T08:42:49.219Z,63.24
2023-05-21T08:43:50.606Z,62.67
2023-05-21T08:44:49.159Z,64.17
2023-05-21T08:45:49.193Z,64.07
2023-05-21T08:46:49.112Z,65.44
2023-05-21T08:47:49.176Z,62.64
2023-05-21T08:48:49.127Z,62.67
2023-05-21T08:49:49.081Z,62.81
2023-05-21T08:50:49.073Z,62.18
2023-05-21T08:51:49.061Z,63.17
2023-05-21T08:52:49.047Z,62.84
2023-05-21T08:53:49.081Z,61.27
2023-05-21T08:54:49.030Z,61.60
2023-05-21T08:55:51.244Z,64.30
2023-05-21T08:56:49.018Z,67.33
2023-05-21T08:57:48.993Z,60.25
2023-05-21T08:58:49.034Z,62.54
2023-05-21T08:59:48.989Z,60.45
2023-05-21T09:00:48.971Z,61.55
2023-05-21T09:01:49.181Z,61.82
2023-05-21T09:02:48.976Z,59.38
2023-05-21T09:03:48.932Z,60.91
2023-05-21T09:04:48.910Z,61.71
2023-05-21T09:05:48.936Z,61.87
2023-05-21T09:06:48.939Z,62.43
2023-05-21T09:07:51.695Z,62.46
2023-05-21T09:08:48.877Z,64.03
2023-05-21T09:09:48.879Z,64.00
2023-05-21T09:10:48.999Z,63.07
2023-05-21T09:11:48.857Z,64.81
2023-05-21T09:12:48.837Z,61.32
2023-05-21T09:13:48.813Z,61.39
2023-05-21T09:14:48.814Z,60.76
2023-05-21T09:15:48.814Z,58.97
2023-05-21T09:16:48.963Z,59.32
2023-05-21T09:17:48.832Z,59.49
2023-05-21T09:18:48.799Z,60.32
2023-05-21T09:19:48.748Z,60.65
2023-05-21T09:20:48.725Z,61.61
2023-05-21T09:21:48.747Z,60.02
2023-05-21T09:22:48.709Z,61.69
2023-05-21T09:23:48.703Z,64.34
2023-05-21T09:24:48.701Z,60.46
2023-05-21T09:25:48.713Z,56.27
2023-05-21T09:26:48.683Z,58.92
2023-05-21T09:27:48.682Z,62.81
2023-05-21T09:28:48.640Z,60.42
2023-05-21T09:29:48.641Z,60.85
2023-05-21T09:30:48.634Z,62.41
2023-05-21T09:31:48.765Z,61.19
2023-05-21T09:32:48.609Z,59.19
2023-05-21T09:33:48.618Z,59.32
2023-05-21T09:34:48.587Z,60.92
2023-05-21T09:35:48.568Z,59.59
2023-05-21T09:36:48.576Z,60.49
2023-05-21T09:37:48.545Z,60.16
2023-05-21T09:38:48.545Z,59.47
2023-05-21T09:39:48.522Z,61.11
2023-05-21T09:40:48.526Z,60.95
2023-05-21T09:41:48.514Z,62.21
2023-05-21T09:42:48.484Z,61.15
2023-05-21T09:43:48.500Z,61.11
2023-05-21T09:44:48.459Z,61.02
2023-05-21T09:45:48.485Z,62.68
2023-05-21T09:46:48.483Z,61.55
2023-05-21T09:47:48.493Z,56.68
2023-05-21T09:48:48.419Z,59.27
2023-05-21T09:49:48.405Z,59.06
2023-05-21T09:50:48.403Z,60.79
2023-05-21T09:51:48.413Z,63.15
2023-05-21T09:52:48.391Z,60.16
2023-05-21T09:53:48.411Z,56.21
2023-05-21T09:54:48.363Z,56.66
2023-05-21T09:55:48.338Z,58.45
2023-05-21T09:56:48.323Z,58.08
2023-05-21T09:57:50.574Z,58.15
2023-05-21T09:58:48.642Z,57.21
2023-05-21T09:59:48.292Z,59.01
2023-05-21T10:00:48.294Z,60.68
2023-05-21T10:01:48.344Z,57.56
2023-05-21T10:02:48.385Z,57.76
2023-05-21T10:03:50.564Z,58.83
2023-05-21T10:04:48.298Z,55.58
2023-05-21T10:05:48.227Z,56.23
2023-05-21T10:06:48.272Z,54.94
2023-05-21T10:07:48.205Z,56.66
2023-05-21T10:08:48.191Z,57.93
2023-05-21T10:09:48.269Z,56.73
2023-05-21T10:10:48.190Z,57.87
2023-05-21T10:11:48.163Z,55.11
2023-05-21T10:12:48.143Z,58.67
2023-05-21T10:13:50.973Z,58.76
2023-05-21T10:14:48.147Z,57.94
2023-05-21T10:15:50.785Z,60.11
2023-05-21T10:16:48.293Z,57.96
2023-05-21T10:17:48.130Z,55.08
2023-05-21T10:18:48.102Z,57.86
2023-05-21T10:19:48.084Z,57.73
2023-05-21T10:20:48.072Z,58.23
2023-05-21T10:21:48.068Z,54.16
2023-05-21T10:22:48.050Z,53.96
2023-05-21T10:23:48.048Z,55.05
2023-05-21T10:24:48.036Z,54.46
2023-05-21T10:25:48.000Z,57.46
2023-05-21T10:26:47.997Z,57.34
2023-05-21T10:27:48.000Z,54.68
2023-05-21T10:28:47.985Z,57.53
2023-05-21T10:29:47.990Z,55.52
2023-05-21T10:30:47.949Z,54.93
2023-05-21T10:31:47.964Z,54.82
2023-05-21T10:32:48.054Z,57.68
2023-05-21T10:33:47.912Z,58.44
2023-05-21T10:34:47.931Z,58.81
2023-05-21T10:35:47.891Z,55.91
2023-05-21T10:36:47.905Z,54.62
2023-05-21T10:37:47.908Z,54.00
2023-05-21T10:38:47.853Z,54.96
2023-05-21T10:39:47.863Z,53.18
2023-05-21T10:40:47.829Z,50.83
2023-05-21T10:41:47.839Z,51.84
2023-05-21T10:42:47.837Z,55.21
2023-05-21T10:43:47.799Z,54.32
2023-05-21T10:44:47.790Z,53.50
2023-05-21T10:45:47.841Z,55.49
2023-05-21T10:46:47.762Z,53.20
2023-05-21T10:47:47.826Z,53.38
2023-05-21T10:48:47.766Z,55.78
2023-05-21T10:49:47.739Z,55.26
2023-05-21T10:50:47.729Z,55.46
2023-05-21T10:51:47.725Z,53.85
2023-05-21T10:52:47.696Z,52.86
2023-05-21T10:53:47.694Z,53.45
2023-05-21T10:54:47.695Z,54.61
2023-05-21T10:55:47.679Z,53.53
2023-05-21T10:56:47.671Z,50.66
2023-05-21T10:57:47.644Z,51.28
2023-05-21T10:58:47.631Z,53.35
2023-05-21T10:59:47.644Z,54.96
2023-05-21T11:00:47.705Z,54.24
2023-05-21T11:01:47.806Z,51.97
2023-05-21T11:02:47.683Z,51.57
2023-05-21T11:03:47.674Z,52.19
2023-05-21T11:04:47.564Z,50.81
2023-05-21T11:05:47.580Z,53.58
2023-05-21T11:06:47.548Z,52.19
2023-05-21T11:07:47.541Z,54.20
2023-05-21T11:08:47.537Z,52.81
2023-05-21T11:09:47.515Z,54.00
2023-05-21T11:10:47.543Z,52.44
2023-05-21T11:11:47.501Z,51.18
2023-05-21T11:12:47.520Z,53.26
2023-05-21T11:13:47.468Z,50.81
2023-05-21T11:14:47.468Z,52.42
2023-05-21T11:15:47.464Z,52.14
2023-05-21T11:16:47.500Z,53.26
2023-05-21T11:17:47.520Z,54.55
2023-05-21T11:18:47.575Z,55.35
2023-05-21T11:19:47.670Z,56.37
2023-05-21T11:20:47.394Z,55.47
2023-05-21T11:21:47.381Z,54.58
2023-05-21T11:22:47.405Z,56.10
2023-05-21T11:23:47.355Z,56.07
2023-05-21T11:24:48.256Z,58.95
2023-05-21T11:25:47.350Z,55.47
2023-05-21T11:26:47.331Z,58.39
2023-05-21T11:27:47.327Z,55.47
2023-05-21T11:28:47.310Z,54.46
2023-05-21T11:29:47.320Z,54.95
2023-05-21T11:30:47.317Z,54.23
2023-05-21T11:31:47.377Z,56.38
2023-05-21T11:32:47.319Z,58.07
2023-05-21T11:33:47.261Z,55.19
2023-05-21T11:34:47.274Z,53.88
2023-05-21T11:35:47.238Z,55.64
2023-05-21T11:36:47.229Z,55.94
2023-05-21T11:37:47.227Z,53.83
2023-05-21T11:38:47.205Z,51.45
2023-05-21T11:39:47.177Z,51.65
2023-05-21T11:40:47.194Z,54.42
2023-05-21T11:41:47.166Z,56.18
2023-05-21T11:42:47.179Z,51.99
2023-05-21T11:43:47.136Z,52.29
2023-05-21T11:44:47.130Z,51.07
2023-05-21T11:45:47.140Z,51.67
2023-05-21T11:46:48.218Z,54.74
2023-05-21T11:47:47.159Z,54.32
2023-05-21T11:48:47.084Z,54.49
2023-05-21T11:49:47.118Z,55.85
2023-05-21T11:50:47.073Z,52.58
2023-05-21T11:51:47.058Z,51.20
2023-05-21T11:52:47.059Z,50.24
2023-05-21T11:53:47.043Z,48.58
2023-05-21T11:54:47.045Z,50.83
2023-05-21T11:55:47.006Z,51.42
2023-05-21T11:56:47.024Z,51.32
2023-05-21T11:57:46.988Z,52.98
2023-05-21T11:58:46.992Z,54.05
2023-05-21T11:59:46.968Z,52.83
2023-05-21T12:00:46.974Z,50.26
2023-05-21T12:01:46.962Z,51.72
2023-05-21T12:02:47.032Z,50.53
2023-05-21T12:03:46.976Z,51.13
2023-05-21T12:04:46.953Z,49.17
2023-05-21T12:05:46.999Z,51.15
2023-05-21T12:06:46.906Z,51.75
2023-05-21T12:07:46.886Z,51.67
2023-05-21T12:08:46.955Z,47.93
2023-05-21T12:09:46.907Z,51.32
2023-05-21T12:10:46.849Z,50.83
2023-05-21T12:11:46.830Z,51.32
2023-05-21T12:12:55.459Z,51.62
2023-05-21T12:13:47.866Z,50.31
2023-05-21T12:14:46.802Z,51.60
2023-05-21T12:15:46.816Z,51.50
2023-05-21T12:16:46.861Z,49.40
2023-05-21T12:17:47.489Z,51.70
2023-05-21T12:18:46.817Z,51.28
2023-05-21T12:19:46.757Z,52.83
2023-05-21T12:20:46.772Z,54.10
2023-05-21T12:21:46.767Z,49.42
2023-05-21T12:22:46.723Z,49.15
2023-05-21T12:23:46.705Z,49.52
2023-05-21T12:24:46.699Z,49.13
2023-05-21T12:25:46.683Z,51.57
2023-05-21T12:26:46.705Z,49.20
2023-05-21T12:27:46.654Z,50.36
2023-05-21T12:28:46.679Z,47.89
2023-05-21T12:29:46.647Z,50.04
2023-05-21T12:30:46.627Z,50.16
2023-05-21T12:31:46.635Z,47.32
2023-05-21T12:32:46.681Z,49.40
2023-05-21T12:33:46.589Z,51.45
2023-05-21T12:34:46.591Z,49.18
2023-05-21T12:35:46.809Z,46.61
2023-05-21T12:36:46.576Z,47.10
2023-05-21T12:37:46.559Z,46.70
2023-05-21T12:38:46.553Z,47.99
2023-05-21T12:39:46.519Z,49.96
2023-05-21T12:40:46.518Z,45.79
2023-05-21T12:41:46.514Z,48.96
2023-05-21T12:42:46.487Z,50.43
2023-05-21T12:43:46.485Z,47.40
2023-05-21T12:44:46.502Z,47.40
2023-05-21T12:45:46.513Z,48.98
2023-05-21T12:46:46.447Z,48.86
2023-05-21T12:47:46.480Z,49.25
2023-05-21T12:48:46.428Z,47.57
2023-05-21T12:49:46.413Z,49.94
2023-05-21T12:50:46.934Z,49.15
2023-05-21T12:51:46.385Z,49.45
2023-05-21T12:52:46.381Z,48.74